Terminal Aerodrome Forecast
Issued by NWS

Home | Current Version | Previous Version | Text Only | Print | Product List | Glossary On
Versions: 1 2 3 4 5 6 7 8 9 10 11 12
045
FTUS42 TJSJ 022342
TAFKPK
TAF
TKPK 022342Z 0300/0324 VRB06KT P6SM FEW018 SCT040
     FM031300 09011KT P6SM SCT020
     FM032300 VRB06KT P6SM FEW018 SCT040
      AMD NOT SKED 0302/0311=

USA.gov is the U.S. government's official web portal to all federal, state and local government web resources and services.